Hlavní strana
METAR-TAF:

METAR-TAF

Letiště :

Winnsboro, Jižní Karolína, Spojené státy americké

zeměpisná šířka: 34-18-56N, zeměpisná délka: 081-06-32W, výška: 176 m

Aktuální stav počasí

Zpráva byla vytvořena před 29 minutami, v 17:15 UTC
Severoseverozápadní vítr 10 kt s nárazy do 15 kt
Teplota 8°C
Vlhkost vzduchu 36%
Tlak 1018 hPa
Viditelnost: 16.1 km
Jasno

METAR: KFDW 271715Z AUTO 34010G15KT 10SM CLR 08/M06 A3007 RMK AO1

Čas: 12:44 (17:44 UTC)


TAF: chybějící

Stav a předpovědi počasí z více než 4 000 letišť (zprávy METAR a TAF).

Červené a žluté tečky na mapě představují dostupné meteorologické stanice.

Když kurzor umístíte na tečku, zobrazí se název stanice.

Pak kliknutím zobrazíte stav a předpověď počasí.

Chcete-li změnit mapu, kliknutím na zelené tlačítko se znaménkem +mapu přiblížíte, kliknutím na zelené tlačítko se znaménkem – mapu oddálíte a kliknutím na zelené šipky přejdete na sousední mapy.


METAR-TAF: